Time;durP1;ratioP1;P1;durP2;ratioP2;P2;SDS_P1;SDS_P2;PMS_P1;PMS_P2;Temp;Humidity;BMP_temperature;BMP_pressure;BME280_temperature;BME280_humidity;BME280_pressure;Samples;Min_cycle;Max_cycle;Signal;HPM_P1;HPM_P2
2024/01/23 00:00:39;;;;;;;9.95;1.95;;;;;;;7.43;100.00;100325.59;5210441;28;20086;-74
2024/01/23 00:03:09;;;;;;;10.10;2.00;;;;;;;7.42;100.00;100329.97;5216272;28;20027;-76
2024/01/23 00:05:40;;;;;;;12.02;1.73;;;;;;;7.37;100.00;100326.59;5202260;28;20086;-75
2024/01/23 00:08:10;;;;;;;13.35;1.60;;;;;;;7.26;100.00;100321.75;5215736;28;20039;-75
2024/01/23 00:10:40;;;;;;;14.25;1.90;;;;;;;7.20;100.00;100311.50;5217910;28;20078;-73
2024/01/23 00:13:11;;;;;;;6.47;1.40;;;;;;;7.21;100.00;100316.66;5217388;28;20024;-74
2024/01/23 00:15:41;;;;;;;13.88;1.85;;;;;;;7.18;100.00;100313.28;5218103;28;20115;-74
2024/01/23 00:18:11;;;;;;;9.82;1.90;;;;;;;7.13;100.00;100309.97;5215602;28;20025;-74
2024/01/23 00:20:42;;;;;;;8.45;1.75;;;;;;;7.16;99.64;100321.16;5215467;28;20312;-75
2024/01/23 00:23:12;;;;;;;12.30;1.42;;;;;;;7.17;100.00;100328.03;5217539;28;20028;-75
2024/01/23 00:25:43;;;;;;;11.27;1.67;;;;;;;7.07;100.00;100325.72;5217951;28;20494;-75
2024/01/23 00:28:14;;;;;;;10.57;1.63;;;;;;;7.13;100.00;100325.56;5216691;28;20102;-75
2024/01/23 00:30:45;;;;;;;10.02;1.48;;;;;;;7.06;100.00;100329.19;5203286;28;20111;-75
2024/01/23 00:33:15;;;;;;;14.65;1.92;;;;;;;7.12;100.00;100329.06;5215274;28;20406;-75
2024/01/23 00:35:45;;;;;;;10.63;2.00;;;;;;;7.19;100.00;100328.84;5214873;28;20191;-75
2024/01/23 00:38:16;;;;;;;7.40;1.45;;;;;;;7.17;99.91;100333.25;5216322;28;20076;-76
2024/01/23 00:40:46;;;;;;;9.90;1.50;;;;;;;7.19;99.33;100321.06;5216932;28;20596;-74
2024/01/23 00:43:16;;;;;;;11.23;1.95;;;;;;;7.21;98.07;100316.66;5216684;28;20021;-76
2024/01/23 00:45:47;;;;;;;8.70;1.70;;;;;;;7.20;98.10;100329.69;5218048;28;20052;-75
2024/01/23 00:48:17;;;;;;;14.50;1.75;;;;;;;7.18;97.81;100329.75;5203585;28;20088;-74
2024/01/23 00:50:47;;;;;;;8.25;1.25;;;;;;;7.22;97.04;100347.78;5217005;28;20025;-74
2024/01/23 00:53:18;;;;;;;11.15;1.25;;;;;;;7.19;96.87;100356.56;5214696;28;20024;-75
2024/01/23 00:55:48;;;;;;;8.52;1.50;;;;;;;7.23;97.60;100353.88;5218549;28;21147;-75
2024/01/23 00:58:18;;;;;;;6.70;1.10;;;;;;;7.27;100.00;100373.69;5220450;28;20032;-75
2024/01/23 01:00:49;;;;;;;10.60;1.90;;;;;;;7.22;100.00;100365.16;5222943;28;20028;-76
2024/01/23 01:03:19;;;;;;;7.22;1.63;;;;;;;7.18;100.00;100370.47;5220317;28;20017;-76
2024/01/23 01:05:49;;;;;;;7.97;1.50;;;;;;;7.03;100.00;100365.63;5220818;28;20444;-76
2024/01/23 01:08:20;;;;;;;10.25;1.50;;;;;;;6.93;100.00;100365.00;5221474;28;20044;-76
2024/01/23 01:10:50;;;;;;;12.55;1.73;;;;;;;6.94;100.00;100371.06;5219837;28;20526;-76
2024/01/23 01:13:20;;;;;;;8.07;1.17;;;;;;;6.91;100.00;100374.59;5216942;28;20048;-72
2024/01/23 01:15:51;;;;;;;7.20;1.63;;;;;;;6.83;100.00;100367.88;5209534;28;20032;-75
2024/01/23 01:18:21;;;;;;;10.07;1.50;;;;;;;6.78;100.00;100365.38;5218202;28;20585;-76
2024/01/23 01:20:52;;;;;;;7.60;1.27;;;;;;;6.78;100.00;100375.75;5221265;28;20395;-75
2024/01/23 01:23:22;;;;;;;6.63;1.30;;;;;;;6.80;100.00;100379.19;5208953;28;20064;-76
2024/01/23 01:25:52;;;;;;;6.68;1.30;;;;;;;6.76;100.00;100382.75;5218536;28;20021;-75
2024/01/23 01:28:23;;;;;;;4.57;0.90;;;;;;;6.74;100.00;100386.28;5217220;28;20029;-75
2024/01/23 01:30:53;;;;;;;6.28;0.95;;;;;;;6.69;100.00;100403.69;5206944;28;20025;-76
2024/01/23 01:33:23;;;;;;;6.60;0.70;;;;;;;6.75;100.00;100412.19;5218604;28;20044;-76
2024/01/23 01:35:54;;;;;;;6.22;0.90;;;;;;;6.80;100.00;100401.72;5216999;28;20438;-75
2024/01/23 01:38:24;;;;;;;3.63;0.77;;;;;;;6.72;100.00;100417.47;5217248;28;20033;-75
2024/01/23 01:40:57;;;;;;;4.60;0.90;;;;;;;6.62;100.00;100415.94;5221663;28;20399;-74
2024/01/23 01:43:29;;;;;;;3.63;0.70;;;;;;;6.65;100.00;100426.28;5219252;28;20052;-75
2024/01/23 01:46:15;;;;;;;9.07;1.02;;;;;;;6.62;100.00;100426.34;5207895;28;20036;-76
2024/01/23 01:48:46;;;;;;;4.47;0.73;;;;;;;6.54;100.00;100433.44;5216266;28;20078;-75
2024/01/23 01:51:23;;;;;;;4.32;0.90;;;;;;;6.57;100.00;100432.53;5201075;28;20037;-75
2024/01/23 01:53:55;;;;;;;3.70;0.90;;;;;;;6.48;100.00;100435.31;5221046;28;20036;-75
2024/01/23 01:56:27;;;;;;;5.13;1.17;;;;;;;6.51;100.00;100443.03;5219281;28;20113;-75
2024/01/23 01:58:58;;;;;;;3.60;0.88;;;;;;;6.45;100.00;100438.81;5218539;28;20028;-72
2024/01/23 02:01:28;;;;;;;7.00;0.95;;;;;;;6.47;100.00;100441.41;5207905;28;20201;-72
2024/01/23 02:03:58;;;;;;;5.15;0.93;;;;;;;6.43;100.00;100447.56;5212538;28;20036;-73
2024/01/23 02:06:30;;;;;;;8.40;0.95;;;;;;;6.38;100.00;100457.16;5217895;28;20260;-75
2024/01/23 02:09:01;;;;;;;4.68;0.60;;;;;;;6.33;100.00;100456.41;5211548;28;20082;-75
2024/01/23 02:11:32;;;;;;;3.58;0.63;;;;;;;6.27;100.00;100459.13;5218124;28;20024;-76
2024/01/23 02:14:02;;;;;;;6.97;0.90;;;;;;;6.30;100.00;100451.28;5209828;28;20514;-72
2024/01/23 02:16:33;;;;;;;8.60;0.95;;;;;;;6.32;100.00;100457.28;5210683;28;20036;-75
2024/01/23 02:19:03;;;;;;;8.73;1.10;;;;;;;6.33;100.00;100459.00;5216083;28;20094;-75
2024/01/23 02:21:33;;;;;;;5.95;1.02;;;;;;;6.32;100.00;100467.66;5216021;28;20452;-75
2024/01/23 02:24:04;;;;;;;4.72;1.00;;;;;;;6.16;100.00;100474.03;5220249;28;20021;-72
2024/01/23 02:26:34;;;;;;;7.80;1.33;;;;;;;6.19;100.00;100463.59;5220366;28;20071;-75
2024/01/23 02:29:04;;;;;;;7.60;1.30;;;;;;;6.19;100.00;100461.88;5207888;28;20281;-73
2024/01/23 02:31:35;;;;;;;7.30;1.00;;;;;;;6.18;100.00;100459.28;5216046;28;20040;-75
2024/01/23 02:34:05;;;;;;;10.75;1.33;;;;;;;6.23;100.00;100460.91;5216462;28;20064;-74
2024/01/23 02:36:39;;;;;;;7.05;1.20;;;;;;;6.41;100.00;100467.50;5216697;28;20032;-75
2024/01/23 02:39:09;;;;;;;7.63;1.27;;;;;;;6.33;100.00;100459.00;5219621;28;20448;-74
2024/01/23 02:41:40;;;;;;;12.18;1.73;;;;;;;6.35;100.00;100467.59;5219756;28;20412;-75
2024/01/23 02:44:10;;;;;;;12.45;1.98;;;;;;;6.32;100.00;100467.66;5218169;28;20025;-73
2024/01/23 02:46:43;;;;;;;10.10;1.40;;;;;;;6.37;100.00;100461.50;5219987;28;20268;-75
2024/01/23 02:49:13;;;;;;;12.40;1.40;;;;;;;6.37;100.00;100468.41;5205493;28;20096;-75
2024/01/23 02:51:44;;;;;;;12.27;1.45;;;;;;;6.38;100.00;100472.72;5217908;28;20479;-75
2024/01/23 02:54:14;;;;;;;11.15;1.77;;;;;;;6.41;100.00;100477.88;5219131;28;20059;-74
2024/01/23 02:56:45;;;;;;;18.35;1.55;;;;;;;6.43;100.00;100484.72;5220117;28;20028;-75
2024/01/23 02:59:16;;;;;;;14.48;1.65;;;;;;;6.50;100.00;100493.25;5207278;28;20437;-75
2024/01/23 03:01:46;;;;;;;9.15;1.38;;;;;;;6.59;100.00;100493.91;5212115;28;20072;-75
2024/01/23 03:04:16;;;;;;;11.95;1.42;;;;;;;6.63;100.00;100492.13;5210584;28;20379;-75
2024/01/23 03:06:47;;;;;;;10.95;1.55;;;;;;;6.55;100.00;100488.81;5218003;28;20028;-75
2024/01/23 03:09:17;;;;;;;13.95;2.17;;;;;;;6.49;100.00;100483.75;5217816;28;20032;-75
2024/01/23 03:11:47;;;;;;;12.38;1.63;;;;;;;6.44;100.00;100483.00;5218724;28;20037;-75
2024/01/23 03:14:17;;;;;;;11.90;1.50;;;;;;;6.38;100.00;100490.88;5205999;28;20048;-75
2024/01/23 03:16:48;;;;;;;10.27;1.17;;;;;;;6.28;100.00;100500.59;5216166;28;20029;-76
2024/01/23 03:19:18;;;;;;;13.77;1.60;;;;;;;6.23;100.00;100509.38;5215309;28;20456;-74
2024/01/23 03:21:48;;;;;;;12.70;1.70;;;;;;;6.32;100.00;100511.78;5217095;28;20021;-75
2024/01/23 03:24:19;;;;;;;14.15;1.80;;;;;;;6.41;100.00;100515.06;5216585;28;20032;-73
2024/01/23 03:26:49;;;;;;;16.25;2.20;;;;;;;6.38;100.00;100516.84;5218736;28;20523;-75
2024/01/23 03:29:19;;;;;;;12.07;1.65;;;;;;;6.43;100.00;100515.88;5207039;28;20021;-75
2024/01/23 03:31:50;;;;;;;13.20;1.90;;;;;;;6.46;100.00;100522.75;5214002;28;20064;-75
2024/01/23 03:34:20;;;;;;;14.23;1.60;;;;;;;6.56;100.00;100522.53;5214912;28;20119;-72
2024/01/23 03:36:50;;;;;;;12.20;1.65;;;;;;;6.53;100.00;100519.13;5216924;28;20052;-75
2024/01/23 03:39:20;;;;;;;16.20;2.63;;;;;;;6.58;100.00;100530.31;5216298;28;20585;-75
2024/01/23 03:41:51;;;;;;;14.57;1.50;;;;;;;6.61;100.00;100540.63;5218193;28;20029;-75
2024/01/23 03:44:21;;;;;;;12.63;2.10;;;;;;;6.56;100.00;100550.25;5205210;28;20655;-75
2024/01/23 03:46:52;;;;;;;8.35;1.50;;;;;;;6.59;100.00;100550.19;5215393;28;20085;-75
2024/01/23 03:49:23;;;;;;;12.48;1.63;;;;;;;6.68;100.00;100556.03;5215054;28;20036;-75
2024/01/23 03:51:53;;;;;;;14.75;1.52;;;;;;;6.64;100.00;100562.19;5219057;28;20533;-75
2024/01/23 03:54:23;;;;;;;21.55;1.75;;;;;;;6.54;100.00;100567.56;5216389;28;20033;-75
2024/01/23 03:56:54;;;;;;;17.65;2.20;;;;;;;6.55;100.00;100574.47;5219259;28;20607;-75
2024/01/23 03:59:24;;;;;;;15.65;2.28;;;;;;;6.66;99.29;100585.50;5235739;22;20118;-74
2024/01/23 04:01:54;;;;;;;16.38;1.88;;;;;;;6.67;98.65;100582.91;5202703;28;20029;-74
2024/01/23 04:04:24;;;;;;;15.30;2.38;;;;;;;6.67;98.49;100585.50;5207469;28;20654;-74
2024/01/23 04:06:55;;;;;;;13.85;1.55;;;;;;;6.60;98.02;100588.25;5209658;28;20033;-74
2024/01/23 04:09:25;;;;;;;10.30;1.50;;;;;;;6.58;97.94;100590.00;5208234;28;20037;-74
2024/01/23 04:11:56;;;;;;;15.95;1.92;;;;;;;6.49;98.28;100596.25;5210854;28;20498;-74
2024/01/23 04:14:26;;;;;;;13.73;1.98;;;;;;;6.49;97.68;100600.56;5209147;28;20044;-74
2024/01/23 04:16:56;;;;;;;18.48;1.90;;;;;;;6.42;97.31;100604.16;5210254;28;20067;-74
2024/01/23 04:19:27;;;;;;;19.08;1.70;;;;;;;6.34;97.17;100614.69;5209347;28;20044;-74
2024/01/23 04:21:57;;;;;;;12.90;1.92;;;;;;;6.36;97.63;100622.44;5212028;28;20350;-74
2024/01/23 04:24:27;;;;;;;17.70;2.05;;;;;;;6.23;97.53;100629.56;5207859;28;20040;-74
2024/01/23 04:26:58;;;;;;;10.57;1.75;;;;;;;6.22;98.33;100632.22;5211345;28;20024;-74
2024/01/23 04:29:28;;;;;;;17.98;1.85;;;;;;;6.22;98.97;100647.78;5201158;28;20029;-74
2024/01/23 04:31:58;;;;;;;15.93;1.80;;;;;;;6.27;98.94;100630.38;5212034;28;20048;-74
2024/01/23 04:34:29;;;;;;;11.55;1.80;;;;;;;6.34;99.77;100637.16;5209136;28;20017;-74
2024/01/23 04:36:59;;;;;;;19.95;1.98;;;;;;;6.35;99.44;100638.88;5209628;28;20039;-74
2024/01/23 04:39:29;;;;;;;15.05;2.03;;;;;;;6.42;99.30;100641.34;5213443;28;20101;-74
2024/01/23 04:41:59;;;;;;;12.77;1.77;;;;;;;6.41;100.00;100656.97;5207111;28;20048;-74
2024/01/23 04:44:30;;;;;;;19.70;2.10;;;;;;;6.47;100.00;100664.63;5208272;28;20029;-74
2024/01/23 04:47:00;;;;;;;11.10;2.13;;;;;;;6.55;100.00;100668.81;5210388;28;20490;-74
2024/01/23 04:49:30;;;;;;;13.00;2.00;;;;;;;6.52;99.76;100668.00;5209336;28;20059;-74
2024/01/23 04:52:01;;;;;;;13.98;1.60;;;;;;;6.49;99.93;100668.06;5209160;28;20099;-74
2024/01/23 04:54:31;;;;;;;9.50;1.50;;;;;;;6.62;100.00;100677.34;5206648;28;20379;-74
2024/01/23 04:57:02;;;;;;;19.98;2.38;;;;;;;6.54;99.64;100681.78;5208396;28;20323;-74
2024/01/23 04:59:33;;;;;;;14.48;1.73;;;;;;;6.56;100.00;100695.63;5202035;28;20108;-74
2024/01/23 05:02:04;;;;;;;12.45;2.00;;;;;;;6.59;99.45;100711.16;5207616;28;20271;-74
2024/01/23 05:04:34;;;;;;;15.32;2.30;;;;;;;6.61;98.95;100715.41;5203150;28;20056;-74
2024/01/23 05:07:04;;;;;;;14.27;2.13;;;;;;;6.59;99.31;100721.53;5213775;28;20475;-74
2024/01/23 05:09:35;;;;;;;16.33;1.90;;;;;;;6.60;98.13;100724.09;5210664;28;20032;-74
2024/01/23 05:12:05;;;;;;;17.92;2.40;;;;;;;6.64;98.24;100717.13;5214273;28;20067;-74
2024/01/23 05:14:36;;;;;;;14.32;1.75;;;;;;;6.67;97.12;100722.25;5200823;28;20325;-74
2024/01/23 05:17:06;;;;;;;13.15;1.50;;;;;;;6.73;97.50;100724.75;5206002;28;20029;-73
2024/01/23 05:19:36;;;;;;;13.60;2.10;;;;;;;6.75;96.09;100734.22;5203340;28;20041;-74
2024/01/23 05:22:07;;;;;;;17.92;2.08;;;;;;;6.65;96.89;100732.69;5210908;28;20134;-73
2024/01/23 05:24:37;;;;;;;13.18;2.05;;;;;;;6.71;96.14;100742.94;5210865;28;20041;-74
2024/01/23 05:27:07;;;;;;;10.38;2.08;;;;;;;6.72;96.41;100748.97;5211267;28;20525;-74
2024/01/23 05:29:37;;;;;;;12.75;1.77;;;;;;;6.73;96.55;100761.13;5209546;28;20037;-74
2024/01/23 05:32:08;;;;;;;6.25;1.30;;;;;;;6.75;95.45;100773.16;5204421;28;20481;-73
2024/01/23 05:34:38;;;;;;;9.45;1.80;;;;;;;6.76;96.04;100766.25;5205644;28;20091;-74
2024/01/23 05:37:08;;;;;;;7.32;1.50;;;;;;;6.80;95.33;100773.09;5206878;28;20026;-74
2024/01/23 05:39:39;;;;;;;9.85;1.55;;;;;;;6.70;96.20;100787.97;5209497;28;20469;-74
2024/01/23 05:42:09;;;;;;;18.70;2.58;;;;;;;6.74;96.43;100791.41;5213840;28;20024;-74
2024/01/23 05:44:39;;;;;;;9.27;1.55;;;;;;;6.79;95.75;100799.97;5209343;28;20028;-74
2024/01/23 05:47:10;;;;;;;17.48;1.85;;;;;;;6.81;95.62;100800.78;5209844;28;20036;-74
2024/01/23 05:49:40;;;;;;;14.32;1.70;;;;;;;6.84;94.81;100791.22;5214902;28;20033;-74
2024/01/23 05:52:10;;;;;;;10.60;1.60;;;;;;;6.85;94.16;100786.84;5212490;28;20025;-74
2024/01/23 05:54:41;;;;;;;17.42;1.90;;;;;;;6.89;93.60;100796.31;5215311;28;20029;-74
2024/01/23 05:57:12;;;;;;;9.73;1.60;;;;;;;6.92;93.82;100798.88;5217915;28;20107;-74
2024/01/23 05:59:42;;;;;;;12.30;1.95;;;;;;;6.90;94.16;100805.84;5209862;28;20103;-72
2024/01/23 06:02:12;;;;;;;10.65;1.83;;;;;;;6.89;95.33;100811.88;5214714;28;20025;-74
2024/01/23 06:04:43;;;;;;;12.73;1.52;;;;;;;6.87;95.51;100816.25;5204810;28;20040;-74
2024/01/23 06:07:13;;;;;;;18.25;1.90;;;;;;;6.95;95.50;100824.78;5206459;28;20028;-73
2024/01/23 06:09:43;;;;;;;14.00;1.73;;;;;;;6.86;96.11;100837.91;5207867;28;20036;-74
2024/01/23 06:12:14;;;;;;;14.38;1.80;;;;;;;6.91;95.81;100841.31;5205153;28;20032;-74
2024/01/23 06:14:44;;;;;;;15.10;1.80;;;;;;;6.95;94.81;100853.38;5206038;28;20387;-73
2024/01/23 06:17:14;;;;;;;12.00;1.65;;;;;;;6.92;94.44;100853.44;5212355;28;20025;-74
2024/01/23 06:19:44;;;;;;;10.38;1.60;;;;;;;6.96;94.50;100853.31;5205868;28;20037;-74
2024/01/23 06:22:15;;;;;;;14.45;1.92;;;;;;;6.95;94.31;100848.19;5217294;28;20017;-74
2024/01/23 06:25:02;;;;;;;12.52;1.77;;;;;;;7.07;94.25;100855.78;5212258;28;20025;-73
2024/01/23 06:27:32;;;;;;;11.30;2.00;;;;;;;7.03;93.60;100867.06;5215160;28;20036;-74
2024/01/23 06:30:04;;;;;;;14.70;1.92;;;;;;;6.93;94.92;100862.94;5207089;28;20036;-74
2024/01/23 06:32:36;;;;;;;13.55;2.10;;;;;;;6.95;94.03;100863.75;5208384;28;20097;-74
2024/01/23 06:35:07;;;;;;;11.38;1.85;;;;;;;7.04;93.62;100856.69;5208386;28;20543;-74
2024/01/23 06:37:37;;;;;;;14.63;2.25;;;;;;;6.86;94.44;100869.09;5210943;28;20028;-74
2024/01/23 06:40:09;;;;;;;12.25;1.67;;;;;;;6.88;94.84;100875.13;5214758;28;20112;-73
2024/01/23 06:42:39;;;;;;;10.23;1.75;;;;;;;6.84;95.68;100881.25;5214162;28;20043;-74
2024/01/23 06:45:10;;;;;;;19.98;2.50;;;;;;;6.83;95.58;100888.19;5216600;28;20095;-74
2024/01/23 06:47:40;;;;;;;13.38;2.10;;;;;;;6.90;95.46;100884.63;5215962;28;20055;-74
2024/01/23 06:50:12;;;;;;;20.08;3.63;;;;;;;6.92;95.00;100882.00;5211639;28;20036;-74
2024/01/23 06:52:42;;;;;;;19.65;2.15;;;;;;;6.82;95.92;100893.41;5216094;28;20017;-74
2024/01/23 06:55:12;;;;;;;20.85;2.42;;;;;;;6.79;96.01;100906.44;5213997;28;20532;-74
2024/01/23 06:57:43;;;;;;;22.00;1.77;;;;;;;6.84;96.29;100912.41;5213982;28;20029;-74
2024/01/23 07:00:13;;;;;;;12.40;1.80;;;;;;;6.89;95.50;100908.88;5213692;28;20056;-74
2024/01/23 07:02:43;;;;;;;13.50;2.47;;;;;;;6.91;94.87;100912.31;5210570;28;20192;-73
2024/01/23 07:05:14;;;;;;;23.30;2.78;;;;;;;6.83;95.84;100913.31;5208375;28;20107;-74
2024/01/23 07:07:44;;;;;;;16.35;2.05;;;;;;;6.81;96.34;100910.75;5205539;28;20029;-74
2024/01/23 07:10:15;;;;;;;13.45;2.17;;;;;;;6.80;96.69;100918.53;5209674;28;20547;-74
2024/01/23 07:12:45;;;;;;;21.40;2.85;;;;;;;6.69;96.96;100931.69;5210842;28;20041;-74
2024/01/23 07:15:16;;;;;;;15.60;2.55;;;;;;;6.72;97.53;100934.25;5205690;28;20025;-74
2024/01/23 07:17:46;;;;;;;14.35;1.73;;;;;;;6.77;96.60;100940.22;5207870;28;20037;-74
2024/01/23 07:20:17;;;;;;;24.92;2.88;;;;;;;6.78;96.69;100939.34;5205291;28;20364;-74
2024/01/23 07:22:47;;;;;;;16.55;2.17;;;;;;;6.79;97.35;100950.59;5208875;28;20037;-74
2024/01/23 07:25:17;;;;;;;19.45;2.17;;;;;;;6.71;97.45;100955.91;5204697;28;20055;-74
2024/01/23 07:27:48;;;;;;;15.85;2.65;;;;;;;6.78;97.66;100961.88;5214040;28;20064;-73
2024/01/23 07:30:19;;;;;;;14.60;1.75;;;;;;;6.81;96.67;100967.91;5206788;28;20029;-74
2024/01/23 07:32:49;;;;;;;14.50;1.95;;;;;;;6.82;96.57;100981.72;5210278;28;20510;-74
2024/01/23 07:35:20;;;;;;;13.43;2.13;;;;;;;6.81;97.21;100993.00;5203818;28;20059;-74
2024/01/23 07:37:50;;;;;;;17.58;2.30;;;;;;;6.85;97.57;100994.66;5210591;28;20453;-73
2024/01/23 07:40:20;;;;;;;18.55;2.50;;;;;;;6.89;97.71;101006.72;5202062;28;20099;-74
2024/01/23 07:42:51;;;;;;;19.10;2.35;;;;;;;6.82;98.95;101012.88;5208497;28;20040;-74
2024/01/23 07:45:21;;;;;;;15.60;2.25;;;;;;;6.80;99.59;101006.84;5201007;28;20517;-74
2024/01/23 07:47:51;;;;;;;16.73;2.22;;;;;;;6.83;100.00;101014.59;5211203;28;20034;-74
2024/01/23 07:50:22;;;;;;;21.10;2.55;;;;;;;6.75;100.00;101006.06;5205364;28;20022;-73
2024/01/23 07:52:52;;;;;;;15.40;2.08;;;;;;;6.75;100.00;101008.66;5211067;28;20356;-73
2024/01/23 07:55:24;;;;;;;21.13;2.70;;;;;;;6.79;100.00;101012.94;5205550;28;20021;-74
2024/01/23 07:57:54;;;;;;;16.27;2.08;;;;;;;6.76;100.00;101016.41;5211155;28;20037;-74
2024/01/23 08:00:24;;;;;;;13.68;2.05;;;;;;;6.68;100.00;101027.78;5209289;28;20398;-73
2024/01/23 08:02:55;;;;;;;13.65;2.55;;;;;;;6.72;100.00;101024.25;5206073;28;20025;-74
2024/01/23 08:05:25;;;;;;;11.95;2.17;;;;;;;6.78;99.66;101026.81;5206899;28;20106;-74
2024/01/23 08:07:55;;;;;;;18.48;2.30;;;;;;;6.84;99.47;101029.31;5210017;28;20040;-74
2024/01/23 08:10:25;;;;;;;14.30;2.03;;;;;;;6.87;99.19;101034.47;5206677;28;20541;-74
2024/01/23 08:12:56;;;;;;;20.92;2.33;;;;;;;6.96;98.04;101027.41;5207304;28;20260;-74
2024/01/23 08:15:26;;;;;;;13.68;2.63;;;;;;;6.98;96.66;101032.59;5213565;28;20028;-74
2024/01/23 08:17:56;;;;;;;16.38;2.40;;;;;;;7.03;96.93;101043.78;5207956;28;20474;-74
2024/01/23 08:20:27;;;;;;;13.93;2.00;;;;;;;7.00;96.67;101051.59;5208810;28;20061;-74
2024/01/23 08:22:57;;;;;;;16.40;2.55;;;;;;;6.98;96.93;101056.84;5213083;28;20035;-73
2024/01/23 08:25:27;;;;;;;13.38;2.20;;;;;;;7.06;95.39;101059.31;5210732;28;20028;-74
2024/01/23 08:27:59;;;;;;;15.77;2.25;;;;;;;7.02;95.49;101050.72;5207704;28;20044;-74
2024/01/23 08:30:29;;;;;;;14.52;2.28;;;;;;;7.04;95.38;101074.06;5210951;28;20498;-74
2024/01/23 08:32:59;;;;;;;16.83;2.60;;;;;;;7.13;95.27;101079.16;5215757;28;20040;-73
2024/01/23 08:35:29;;;;;;;17.75;2.50;;;;;;;7.24;94.63;101075.53;5213407;28;20366;-74
2024/01/23 08:38:00;;;;;;;13.10;2.20;;;;;;;7.18;95.04;101082.53;5211886;28;20025;-74
2024/01/23 08:40:30;;;;;;;15.95;2.03;;;;;;;7.15;95.57;101091.25;5210524;28;20194;-74
2024/01/23 08:43:00;;;;;;;20.58;2.95;;;;;;;7.22;95.25;101100.69;5204494;28;20116;-73
2024/01/23 08:45:31;;;;;;;18.85;2.22;;;;;;;7.24;94.85;101116.28;5215152;28;20037;-74
2024/01/23 08:48:01;;;;;;;13.60;2.15;;;;;;;7.16;95.20;101124.16;5207313;28;20021;-73
2024/01/23 08:50:32;;;;;;;20.60;2.72;;;;;;;7.28;95.08;101127.47;5211112;28;20104;-73
2024/01/23 08:53:02;;;;;;;16.58;2.00;;;;;;;7.28;95.11;101126.59;5214591;28;20025;-74
2024/01/23 08:55:32;;;;;;;20.02;2.80;;;;;;;7.37;94.11;101132.50;5210950;28;20525;-73
2024/01/23 08:58:03;;;;;;;15.32;2.60;;;;;;;7.32;94.86;101143.88;5207825;28;20029;-74
2024/01/23 09:00:34;;;;;;;17.67;2.60;;;;;;;7.32;94.90;101154.28;5214811;28;20039;-73
2024/01/23 09:03:04;;;;;;;20.75;2.95;;;;;;;7.25;95.62;101162.19;5209516;28;20427;-73
2024/01/23 09:05:34;;;;;;;27.38;2.78;;;;;;;7.28;95.65;101166.44;5212694;28;20029;-73
2024/01/23 09:08:05;;;;;;;20.05;2.30;;;;;;;7.31;96.27;101169.00;5211960;28;20031;-74
2024/01/23 09:10:35;;;;;;;19.67;2.40;;;;;;;7.38;95.68;101175.00;5217614;28;20021;-74
2024/01/23 09:13:05;;;;;;;20.60;2.47;;;;;;;7.36;96.11;101177.59;5208548;28;20629;-74
2024/01/23 09:15:36;;;;;;;20.02;2.80;;;;;;;7.46;95.42;101188.72;5214116;28;20114;-74
2024/01/23 09:18:06;;;;;;;16.90;3.28;;;;;;;7.43;94.98;101189.66;5210902;28;20033;-73
2024/01/23 09:20:36;;;;;;;17.27;3.15;;;;;;;7.57;95.16;101192.06;5215918;28;20044;-74
2024/01/23 09:23:07;;;;;;;21.55;2.58;;;;;;;7.47;94.24;101199.13;5214238;28;20108;-74
2024/01/23 09:25:37;;;;;;;25.20;4.22;;;;;;;7.62;94.76;101206.72;5218709;28;20033;-74
2024/01/23 09:28:08;;;;;;;18.17;2.22;;;;;;;7.54;95.10;101213.75;5217984;28;20540;-73
2024/01/23 09:30:39;;;;;;;20.92;2.60;;;;;;;7.52;94.94;101236.31;5221143;28;20035;-74
2024/01/23 09:33:09;;;;;;;16.38;2.50;;;;;;;7.64;95.51;101228.38;5211390;28;20018;-74
2024/01/23 09:35:40;;;;;;;17.30;2.67;;;;;;;7.64;95.52;101238.78;5213236;28;20037;-73
2024/01/23 09:38:10;;;;;;;21.13;3.90;;;;;;;7.68;95.73;101244.81;5209776;28;20539;-73
2024/01/23 09:40:41;;;;;;;19.40;3.22;;;;;;;7.71;96.39;101240.41;5213268;28;20070;-73
2024/01/23 09:43:12;;;;;;;19.73;2.50;;;;;;;7.62;96.48;101243.16;5213746;28;20031;-73
2024/01/23 09:45:46;;;;;;;16.27;3.17;;;;;;;7.72;96.93;101249.94;5217170;28;20024;-72
2024/01/23 09:48:16;;;;;;;13.20;2.28;;;;;;;7.80;96.73;101252.44;5218519;28;20233;-73
2024/01/23 09:50:47;;;;;;;16.88;2.65;;;;;;;7.83;96.98;101254.97;5220202;28;20025;-73
2024/01/23 09:53:23;;;;;;;25.95;2.83;;;;;;;7.82;95.66;101261.06;5212581;28;20052;-74
2024/01/23 09:55:53;;;;;;;17.08;2.63;;;;;;;7.82;96.48;101268.88;5215475;28;20112;-74
2024/01/23 09:58:25;;;;;;;23.60;3.63;;;;;;;7.78;95.71;101270.69;5215078;28;20105;-74
2024/01/23 10:00:58;;;;;;;17.50;2.75;;;;;;;7.82;96.05;101264.56;5216152;28;20108;-74
2024/01/23 10:03:31;;;;;;;19.13;3.10;;;;;;;7.79;96.38;101268.94;5212999;28;20024;-74
2024/01/23 10:06:03;;;;;;;22.88;3.45;;;;;;;7.79;96.46;101256.78;5212603;28;20017;-74
2024/01/23 10:08:34;;;;;;;24.20;3.70;;;;;;;7.70;96.07;101262.09;5215157;28;20438;-73
2024/01/23 10:11:04;;;;;;;17.20;3.67;;;;;;;7.82;96.02;101272.34;5213883;28;20032;-74
2024/01/23 10:13:37;;;;;;;22.48;2.97;;;;;;;7.81;95.30;101270.63;5215039;28;20035;-74
2024/01/23 10:16:07;;;;;;;35.65;7.70;;;;;;;7.90;95.17;101269.66;5214347;28;20272;-74
2024/01/23 10:18:37;;;;;;;19.48;2.97;;;;;;;7.87;94.90;101273.16;5214723;28;20029;-74
2024/01/23 10:21:08;;;;;;;21.05;3.20;;;;;;;7.95;95.05;101271.31;5214180;28;20033;-74
2024/01/23 10:23:39;;;;;;;25.50;3.80;;;;;;;8.02;94.69;101283.34;5215308;28;20025;-74
2024/01/23 10:26:09;;;;;;;21.80;2.50;;;;;;;8.18;94.73;101266.66;5211361;28;20025;-74
2024/01/23 10:28:42;;;;;;;23.10;3.78;;;;;;;8.06;93.45;101285.03;5210399;28;20568;-73
2024/01/23 10:31:13;;;;;;;21.17;3.03;;;;;;;8.08;94.45;101275.44;5214315;28;20384;-74
2024/01/23 10:33:44;;;;;;;19.60;3.25;;;;;;;8.23;94.36;101283.06;5237712;28;20076;-74
2024/01/23 10:36:16;;;;;;;21.73;2.55;;;;;;;8.12;94.60;101289.28;5210139;28;20024;-74
2024/01/23 10:38:50;;;;;;;16.30;2.92;;;;;;;8.28;93.55;101296.91;5216019;28;20040;-73
2024/01/23 10:41:23;;;;;;;13.80;3.08;;;;;;;8.21;92.86;101290.03;5214368;28;20036;-74
2024/01/23 10:43:55;;;;;;;17.20;2.78;;;;;;;8.32;92.78;101310.72;5216455;28;20103;-73
2024/01/23 10:46:28;;;;;;;16.05;2.38;;;;;;;8.18;92.70;101312.69;5212522;28;20490;-73
2024/01/23 10:48:58;;;;;;;23.45;2.88;;;;;;;8.33;93.14;101318.53;5214937;28;20609;-74
2024/01/23 10:51:32;;;;;;;19.10;2.95;;;;;;;8.44;93.23;101310.53;5215033;28;20053;-74
2024/01/23 10:54:08;;;;;;;18.77;2.35;;;;;;;8.58;92.16;101317.25;5213092;28;20021;-74
2024/01/23 10:56:43;;;;;;;21.63;2.65;;;;;;;8.61;91.28;101311.16;5210835;28;20033;-74
2024/01/23 10:59:18;;;;;;;13.55;2.85;;;;;;;8.64;91.21;101311.09;5212201;28;20032;-74
2024/01/23 11:01:50;;;;;;;15.75;2.45;;;;;;;8.68;91.15;101308.41;5216534;28;20111;-72
2024/01/23 11:04:21;;;;;;;23.13;3.50;;;;;;;8.76;90.70;101309.13;5217667;28;20029;-74
2024/01/23 11:07:00;;;;;;;20.42;3.40;;;;;;;8.83;89.75;101309.91;5213802;28;20494;-74
2024/01/23 11:09:44;;;;;;;22.77;3.70;;;;;;;8.78;89.58;101317.81;5214680;28;20029;-73
2024/01/23 11:12:23;;;;;;;15.07;3.42;;;;;;;8.69;89.58;101306.69;5213986;28;20373;-74
2024/01/23 11:15:01;;;;;;;15.77;3.22;;;;;;;8.78;88.79;101312.59;5215993;28;20036;-73
2024/01/23 11:17:35;;;;;;;30.75;4.75;;;;;;;8.77;88.92;101318.72;5210058;28;20037;-73
2024/01/23 11:20:13;;;;;;;21.23;2.78;;;;;;;8.60;89.86;101323.31;5216294;28;20036;-74
2024/01/23 11:22:44;;;;;;;19.92;3.72;;;;;;;8.79;89.30;101313.44;5214795;28;20041;-74
2024/01/23 11:25:17;;;;;;;18.67;3.03;;;;;;;8.68;89.26;101325.78;5215721;28;20033;-74
2024/01/23 11:27:48;;;;;;;13.48;2.47;;;;;;;8.78;88.91;101327.38;5214348;28;20171;-74
2024/01/23 11:30:19;;;;;;;20.05;3.00;;;;;;;8.76;88.67;101327.38;5214831;28;20029;-74
2024/01/23 11:32:49;;;;;;;23.85;3.58;;;;;;;8.72;88.72;101322.25;5210242;28;20029;-74
2024/01/23 11:35:20;;;;;;;23.67;2.67;;;;;;;8.76;88.54;101329.97;5215801;28;20018;-74
2024/01/23 11:37:51;;;;;;;17.00;2.85;;;;;;;8.68;89.08;101326.66;5215608;28;20033;-74
2024/01/23 11:40:27;;;;;;;26.10;3.33;;;;;;;8.75;88.23;101324.81;5213723;28;20180;-74